Aérodrome :
LOGIN :

S'inscrire | Disclaimer

   EN    FR    IT 

 










Légende :    VFR   VFR Marginal   IFR   IFR Intensif   IFR Très Intensif
Visi : 
Plafond : 
>= 8 km
>= 3000ft
5 à 8 km
1000 à 3000 ft
1500m à 5 km
500 à 1000 ft
800 à 1500m
200 à 500 ft
< 800m
< 200 ft
Symboles :   Orages  Brouillard  Fortes neiges  Fortes précipitations  Vent > 20 kt
SIGMETs :   Divers  Orages  Givrage  Turbulence  Onde Orograph.  Cendres Volcan.






- Altitude de l'aérodrome : 65 ft
- Code IATA : PIK


EGPK - Glasgow Prestwick

DERNIER METAR :
  • 250850Z 30005KT 270V330 9999 SCT008 OVC023 16/14 Q1018

METARs EXPIRÉS :
  • 250820Z 29006KT 9999 FEW008 SCT014 OVC022 15/14 Q1018
  • 250750Z 28004KT 240V300 8000 OVC010 16/14 Q1018
  • 250720Z 28002KT 8000 OVC007 15/14 Q1018
  • 250650Z VRB02KT 5000 BR SCT004 BKN006 15/14 Q1018
  • 250620Z 28003KT 240V300 8000 SCT004 OVC007 15/14 Q1018
  • 250550Z VRB02KT 5000 BR SCT004 OVC009 15/14 Q1017
  • 250520Z 24003KT 210V280 5000 BR BKN004 OVC010 14/14 Q1017
  • 250450Z 27005KT 230V300 5000 BR SCT003 OVC011 15/14 Q1017
  • 250420Z 25004KT 220V280 6000 FEW005 OVC012 15/14 Q1017

TAF TAF EGPK
Valide du 25 à 06h jusqu'au 26 à 06h UTC


250456Z 2506/2606 25005KT 9999 SCT010
TEMPO 2506/2509 7000 BKN008
PROB40
TEMPO 2506/2508 3000 BR BKN003
PROB30
TEMPO 2515/2518 7000 -RA
BECMG 2518/2521 04010KT
PROB40
TEMPO 2521/2606 BKN008



MET'MAP, la Météo Aéronautique d'un coup d'oeil ! - Copyright ORBIFLY Décembre 2007 - Disclaimer

ORBIFLY MET'MAP TEAM :

Programmation & Développement : Alexandra Zaïnal
Sur une idée originale de : Baudouin d'Aumeries
Soutien technique & logistique : Manuel Goepfert
Assistance : Marc-Olivier Méhu




SOURCES & CREDITS :

   NOAA